Aviation Digital Data Service (ADDS)

Output produced by METARs form (1641 UTC 16 June 2019)
found at http://www.aviationweather.gov/metar/data/
 
METAR text: SCDA 161600Z 22014KT 9999 OVC031 17/12 Q1016
Conditions at: SCDA (IQUIQUE/DIEGO AR, CL) observed 1600 UTC 16 June 2019
Temperature: 17.0°C (63°F)
Dewpoint: 12.0°C (54°F) [RH = 72%]
Pressure (altimeter): 30.00 inches Hg (1016.0 mb)
Winds: from the SW (220 degrees) at 16 MPH (14 knots; 7.2 m/s)
Visibility: 6 or more miles (10+ km)
Ceiling: 3100 feet AGL
Clouds: overcast cloud deck at 3100 feet AGL
Weather: no significant weather observed at this time

METAR text: SCDA 161500Z 22015KT 9999 OVC030 16/12 Q1016
Conditions at: SCDA (IQUIQUE/DIEGO AR, CL) observed 1500 UTC 16 June 2019
Temperature: 16.0°C (61°F)
Dewpoint: 12.0°C (54°F) [RH = 77%]
Pressure (altimeter): 30.00 inches Hg (1016.0 mb)
Winds: from the SW (220 degrees) at 17 MPH (15 knots; 7.7 m/s)
Visibility: 6 or more miles (10+ km)
Ceiling: 3000 feet AGL
Clouds: overcast cloud deck at 3000 feet AGL
Weather: no significant weather observed at this time

METAR text: SCDA 161400Z 22014KT 9999 OVC031 16/12 Q1016
Conditions at: SCDA (IQUIQUE/DIEGO AR, CL) observed 1400 UTC 16 June 2019
Temperature: 16.0°C (61°F)
Dewpoint: 12.0°C (54°F) [RH = 77%]
Pressure (altimeter): 30.00 inches Hg (1016.0 mb)
Winds: from the SW (220 degrees) at 16 MPH (14 knots; 7.2 m/s)
Visibility: 6 or more miles (10+ km)
Ceiling: 3100 feet AGL
Clouds: overcast cloud deck at 3100 feet AGL
Weather: no significant weather observed at this time

METAR text: SCDA 161300Z 21012KT 9999 BKN031 16/12 Q1016
Conditions at: SCDA (IQUIQUE/DIEGO AR, CL) observed 1300 UTC 16 June 2019
Temperature: 16.0°C (61°F)
Dewpoint: 12.0°C (54°F) [RH = 77%]
Pressure (altimeter): 30.00 inches Hg (1016.0 mb)
Winds: from the SSW (210 degrees) at 14 MPH (12 knots; 6.2 m/s)
Visibility: 6 or more miles (10+ km)
Ceiling: 3100 feet AGL
Clouds: broken clouds at 3100 feet AGL
Weather: no significant weather observed at this time

METAR text: SCDA 161200Z 20010KT 9999 SCT031 BKN180 15/12 Q1016
Conditions at: SCDA (IQUIQUE/DIEGO AR, CL) observed 1200 UTC 16 June 2019
Temperature: 15.0°C (59°F)
Dewpoint: 12.0°C (54°F) [RH = 82%]
Pressure (altimeter): 30.00 inches Hg (1016.0 mb)
Winds: from the SSW (200 degrees) at 12 MPH (10 knots; 5.1 m/s)
Visibility: 6 or more miles (10+ km)
Ceiling: 18000 feet AGL
Clouds: scattered clouds at 3100 feet AGL
broken clouds at 18000 feet AGL
Weather: no significant weather observed at this time

METAR text: SCDA 161100Z 21010KT 9999 OVC033 15/12 Q1016
Conditions at: SCDA (IQUIQUE/DIEGO AR, CL) observed 1100 UTC 16 June 2019
Temperature: 15.0°C (59°F)
Dewpoint: 12.0°C (54°F) [RH = 82%]
Pressure (altimeter): 30.00 inches Hg (1016.0 mb)
Winds: from the SSW (210 degrees) at 12 MPH (10 knots; 5.1 m/s)
Visibility: 6 or more miles (10+ km)
Ceiling: 3300 feet AGL
Clouds: overcast cloud deck at 3300 feet AGL
Weather: no significant weather observed at this time

METAR text: SCDA 161000Z 22012KT 9999 OVC033 15/12 Q1016
Conditions at: SCDA (IQUIQUE/DIEGO AR, CL) observed 1000 UTC 16 June 2019
Temperature: 15.0°C (59°F)
Dewpoint: 12.0°C (54°F) [RH = 82%]
Pressure (altimeter): 30.00 inches Hg (1016.0 mb)
Winds: from the SW (220 degrees) at 14 MPH (12 knots; 6.2 m/s)
Visibility: 6 or more miles (10+ km)
Ceiling: 3300 feet AGL
Clouds: overcast cloud deck at 3300 feet AGL
Weather: no significant weather observed at this time

METAR text: SCDA 160900Z 22009KT 9999 OVC033 16/12 Q1016
Conditions at: SCDA (IQUIQUE/DIEGO AR, CL) observed 0900 UTC 16 June 2019
Temperature: 16.0°C (61°F)
Dewpoint: 12.0°C (54°F) [RH = 77%]
Pressure (altimeter): 30.00 inches Hg (1016.0 mb)
Winds: from the SW (220 degrees) at 10 MPH (9 knots; 4.6 m/s)
Visibility: 6 or more miles (10+ km)
Ceiling: 3300 feet AGL
Clouds: overcast cloud deck at 3300 feet AGL
Weather: no significant weather observed at this time

METAR text: SCDA 160800Z 21004KT 9999 OVC031 16/11 Q1016
Conditions at: SCDA (IQUIQUE/DIEGO AR, CL) observed 0800 UTC 16 June 2019
Temperature: 16.0°C (61°F)
Dewpoint: 11.0°C (52°F) [RH = 72%]
Pressure (altimeter): 30.00 inches Hg (1016.0 mb)
Winds: from the SSW (210 degrees) at 5 MPH (4 knots; 2.1 m/s)
Visibility: 6 or more miles (10+ km)
Ceiling: 3100 feet AGL
Clouds: overcast cloud deck at 3100 feet AGL
Weather: no significant weather observed at this time

METAR text: SCDA 160700Z 21005KT 9999 OVC032 16/11 Q1017
Conditions at: SCDA (IQUIQUE/DIEGO AR, CL) observed 0700 UTC 16 June 2019
Temperature: 16.0°C (61°F)
Dewpoint: 11.0°C (52°F) [RH = 72%]
Pressure (altimeter): 30.03 inches Hg (1017.0 mb)
Winds: from the SSW (210 degrees) at 6 MPH (5 knots; 2.6 m/s)
Visibility: 6 or more miles (10+ km)
Ceiling: 3200 feet AGL
Clouds: overcast cloud deck at 3200 feet AGL
Weather: no significant weather observed at this time

METAR text: SCDA 160600Z 21004KT 9999 OVC029 16/12 Q1018
Conditions at: SCDA (IQUIQUE/DIEGO AR, CL) observed 0600 UTC 16 June 2019
Temperature: 16.0°C (61°F)
Dewpoint: 12.0°C (54°F) [RH = 77%]
Pressure (altimeter): 30.06 inches Hg (1018.0 mb)
Winds: from the SSW (210 degrees) at 5 MPH (4 knots; 2.1 m/s)
Visibility: 6 or more miles (10+ km)
Ceiling: 2900 feet AGL
Clouds: overcast cloud deck at 2900 feet AGL
Weather: no significant weather observed at this time

METAR text: SCDA 160500Z 21004KT 9999 OVC028 16/12 Q1018
Conditions at: SCDA (IQUIQUE/DIEGO AR, CL) observed 0500 UTC 16 June 2019
Temperature: 16.0°C (61°F)
Dewpoint: 12.0°C (54°F) [RH = 77%]
Pressure (altimeter): 30.06 inches Hg (1018.0 mb)
Winds: from the SSW (210 degrees) at 5 MPH (4 knots; 2.1 m/s)
Visibility: 6 or more miles (10+ km)
Ceiling: 2800 feet AGL
Clouds: overcast cloud deck at 2800 feet AGL
Weather: no significant weather observed at this time

METAR text: SCDA 160400Z 22005KT 9999 FEW022 OVC027 16/12 Q1018
Conditions at: SCDA (IQUIQUE/DIEGO AR, CL) observed 0400 UTC 16 June 2019
Temperature: 16.0°C (61°F)
Dewpoint: 12.0°C (54°F) [RH = 77%]
Pressure (altimeter): 30.06 inches Hg (1018.0 mb)
Winds: from the SW (220 degrees) at 6 MPH (5 knots; 2.6 m/s)
Visibility: 6 or more miles (10+ km)
Ceiling: 2700 feet AGL
Clouds: few clouds at 2200 feet AGL
overcast cloud deck at 2700 feet AGL
Weather: no significant weather observed at this time

METAR text: SCDA 160300Z 21006KT 9999 OVC027 16/12 Q1019
Conditions at: SCDA (IQUIQUE/DIEGO AR, CL) observed 0300 UTC 16 June 2019
Temperature: 16.0°C (61°F)
Dewpoint: 12.0°C (54°F) [RH = 77%]
Pressure (altimeter): 30.09 inches Hg (1019.0 mb)
Winds: from the SSW (210 degrees) at 7 MPH (6 knots; 3.1 m/s)
Visibility: 6 or more miles (10+ km)
Ceiling: 2700 feet AGL
Clouds: overcast cloud deck at 2700 feet AGL
Weather: no significant weather observed at this time

METAR text: SCDA 160200Z 22008KT 9999 BKN023 OVC032 16/12 Q1019
Conditions at: SCDA (IQUIQUE/DIEGO AR, CL) observed 0200 UTC 16 June 2019
Temperature: 16.0°C (61°F)
Dewpoint: 12.0°C (54°F) [RH = 77%]
Pressure (altimeter): 30.09 inches Hg (1019.0 mb)
Winds: from the SW (220 degrees) at 9 MPH (8 knots; 4.1 m/s)
Visibility: 6 or more miles (10+ km)
Ceiling: 2300 feet AGL
Clouds: broken clouds at 2300 feet AGL
overcast cloud deck at 3200 feet AGL
Weather: no significant weather observed at this time

METAR text: SCDA 160100Z 22009KT 9999 OVC026 16/12 Q1018
Conditions at: SCDA (IQUIQUE/DIEGO AR, CL) observed 0100 UTC 16 June 2019
Temperature: 16.0°C (61°F)
Dewpoint: 12.0°C (54°F) [RH = 77%]
Pressure (altimeter): 30.06 inches Hg (1018.0 mb)
Winds: from the SW (220 degrees) at 10 MPH (9 knots; 4.6 m/s)
Visibility: 6 or more miles (10+ km)
Ceiling: 2600 feet AGL
Clouds: overcast cloud deck at 2600 feet AGL
Weather: no significant weather observed at this time

METAR text: SCDA 160000Z 22012KT 9999 OVC025 16/12 Q1018
Conditions at: SCDA (IQUIQUE/DIEGO AR, CL) observed 0000 UTC 16 June 2019
Temperature: 16.0°C (61°F)
Dewpoint: 12.0°C (54°F) [RH = 77%]
Pressure (altimeter): 30.06 inches Hg (1018.0 mb)
Winds: from the SW (220 degrees) at 14 MPH (12 knots; 6.2 m/s)
Visibility: 6 or more miles (10+ km)
Ceiling: 2500 feet AGL
Clouds: overcast cloud deck at 2500 feet AGL
Weather: no significant weather observed at this time

METAR text: SCDA 152300Z 22012KT 9999 SCT026 OVC031 16/12 Q1018
Conditions at: SCDA (IQUIQUE/DIEGO AR, CL) observed 2300 UTC 15 June 2019
Temperature: 16.0°C (61°F)
Dewpoint: 12.0°C (54°F) [RH = 77%]
Pressure (altimeter): 30.06 inches Hg (1018.0 mb)
Winds: from the SW (220 degrees) at 14 MPH (12 knots; 6.2 m/s)
Visibility: 6 or more miles (10+ km)
Ceiling: 3100 feet AGL
Clouds: scattered clouds at 2600 feet AGL
overcast cloud deck at 3100 feet AGL
Weather: no significant weather observed at this time

METAR text: SCDA 152200Z 22013KT 9999 OVC027 16/12 Q1018
Conditions at: SCDA (IQUIQUE/DIEGO AR, CL) observed 2200 UTC 15 June 2019
Temperature: 16.0°C (61°F)
Dewpoint: 12.0°C (54°F) [RH = 77%]
Pressure (altimeter): 30.06 inches Hg (1018.0 mb)
Winds: from the SW (220 degrees) at 15 MPH (13 knots; 6.7 m/s)
Visibility: 6 or more miles (10+ km)
Ceiling: 2700 feet AGL
Clouds: overcast cloud deck at 2700 feet AGL
Weather: no significant weather observed at this time

METAR text: SCDA 152100Z 23013KT 9999 FEW020 OVC028 16/12 Q1017
Conditions at: SCDA (IQUIQUE/DIEGO AR, CL) observed 2100 UTC 15 June 2019
Temperature: 16.0°C (61°F)
Dewpoint: 12.0°C (54°F) [RH = 77%]
Pressure (altimeter): 30.03 inches Hg (1017.0 mb)
Winds: from the SW (230 degrees) at 15 MPH (13 knots; 6.7 m/s)
Visibility: 6 or more miles (10+ km)
Ceiling: 2800 feet AGL
Clouds: few clouds at 2000 feet AGL
overcast cloud deck at 2800 feet AGL
Weather: no significant weather observed at this time

METAR text: SCDA 152000Z 23014KT 9999 OVC028 16/12 Q1017
Conditions at: SCDA (IQUIQUE/DIEGO AR, CL) observed 2000 UTC 15 June 2019
Temperature: 16.0°C (61°F)
Dewpoint: 12.0°C (54°F) [RH = 77%]
Pressure (altimeter): 30.03 inches Hg (1017.0 mb)
Winds: from the SW (230 degrees) at 16 MPH (14 knots; 7.2 m/s)
Visibility: 6 or more miles (10+ km)
Ceiling: 2800 feet AGL
Clouds: overcast cloud deck at 2800 feet AGL
Weather: no significant weather observed at this time

METAR text: SCDA 151900Z 22014KT 9999 FEW020 OVC029 17/13 Q1016
Conditions at: SCDA (IQUIQUE/DIEGO AR, CL) observed 1900 UTC 15 June 2019
Temperature: 17.0°C (63°F)
Dewpoint: 13.0°C (55°F) [RH = 77%]
Pressure (altimeter): 30.00 inches Hg (1016.0 mb)
Winds: from the SW (220 degrees) at 16 MPH (14 knots; 7.2 m/s)
Visibility: 6 or more miles (10+ km)
Ceiling: 2900 feet AGL
Clouds: few clouds at 2000 feet AGL
overcast cloud deck at 2900 feet AGL
Weather: no significant weather observed at this time

METAR text: SCDA 151800Z 23012KT 9999 FEW020 OVC034 17/12 Q1018
Conditions at: SCDA (IQUIQUE/DIEGO AR, CL) observed 1800 UTC 15 June 2019
Temperature: 17.0°C (63°F)
Dewpoint: 12.0°C (54°F) [RH = 72%]
Pressure (altimeter): 30.06 inches Hg (1018.0 mb)
Winds: from the SW (230 degrees) at 14 MPH (12 knots; 6.2 m/s)
Visibility: 6 or more miles (10+ km)
Ceiling: 3400 feet AGL
Clouds: few clouds at 2000 feet AGL
overcast cloud deck at 3400 feet AGL
Weather: no significant weather observed at this time

METAR text: SCDA 151700Z 21010KT 9999 FEW020 OVC031 17/12 Q1019
Conditions at: SCDA (IQUIQUE/DIEGO AR, CL) observed 1700 UTC 15 June 2019
Temperature: 17.0°C (63°F)
Dewpoint: 12.0°C (54°F) [RH = 72%]
Pressure (altimeter): 30.09 inches Hg (1019.0 mb)
Winds: from the SSW (210 degrees) at 12 MPH (10 knots; 5.1 m/s)
Visibility: 6 or more miles (10+ km)
Ceiling: 3100 feet AGL
Clouds: few clouds at 2000 feet AGL
overcast cloud deck at 3100 feet AGL
Weather: no significant weather observed at this time

METAR text: SCDA 151600Z 22008KT 9999 BKN016 SCT030 17/12 Q1019
Conditions at: SCDA (IQUIQUE/DIEGO AR, CL) observed 1600 UTC 15 June 2019
Temperature: 17.0°C (63°F)
Dewpoint: 12.0°C (54°F) [RH = 72%]
Pressure (altimeter): 30.09 inches Hg (1019.0 mb)
Winds: from the SW (220 degrees) at 9 MPH (8 knots; 4.1 m/s)
Visibility: 6 or more miles (10+ km)
Ceiling: 1600 feet AGL
Clouds: broken clouds at 1600 feet AGL
scattered clouds at 3000 feet AGL
Weather: no significant weather observed at this time

METAR text: SCDA 151500Z 23014KT 9999 SCT017 SCT025 17/12 Q1020
Conditions at: SCDA (IQUIQUE/DIEGO AR, CL) observed 1500 UTC 15 June 2019
Temperature: 17.0°C (63°F)
Dewpoint: 12.0°C (54°F) [RH = 72%]
Pressure (altimeter): 30.12 inches Hg (1020.0 mb)
Winds: from the SW (230 degrees) at 16 MPH (14 knots; 7.2 m/s)
Visibility: 6 or more miles (10+ km)
Ceiling: at least 12,000 feet AGL
Clouds: scattered clouds at 1700 feet AGL
scattered clouds at 2500 feet AGL
Weather: no significant weather observed at this time

METAR text: SCDA 151400Z 23009KT 9999 FEW020 SCT035 17/11 Q1019
Conditions at: SCDA (IQUIQUE/DIEGO AR, CL) observed 1400 UTC 15 June 2019
Temperature: 17.0°C (63°F)
Dewpoint: 11.0°C (52°F) [RH = 68%]
Pressure (altimeter): 30.09 inches Hg (1019.0 mb)
Winds: from the SW (230 degrees) at 10 MPH (9 knots; 4.6 m/s)
Visibility: 6 or more miles (10+ km)
Ceiling: at least 12,000 feet AGL
Clouds: few clouds at 2000 feet AGL
scattered clouds at 3500 feet AGL
Weather: no significant weather observed at this time

METAR text: SCDA 151300Z 32004KT 9999 BKN030 17/12 Q1019
Conditions at: SCDA (IQUIQUE/DIEGO AR, CL) observed 1300 UTC 15 June 2019
Temperature: 17.0°C (63°F)
Dewpoint: 12.0°C (54°F) [RH = 72%]
Pressure (altimeter): 30.09 inches Hg (1019.0 mb)
Winds: from the NW (320 degrees) at 5 MPH (4 knots; 2.1 m/s)
Visibility: 6 or more miles (10+ km)
Ceiling: 3000 feet AGL
Clouds: broken clouds at 3000 feet AGL
Weather: no significant weather observed at this time

METAR text: SCDA 151200Z 09005KT 9999 OVC033 16/11 Q1019
Conditions at: SCDA (IQUIQUE/DIEGO AR, CL) observed 1200 UTC 15 June 2019
Temperature: 16.0°C (61°F)
Dewpoint: 11.0°C (52°F) [RH = 72%]
Pressure (altimeter): 30.09 inches Hg (1019.0 mb)
Winds: from the E (90 degrees) at 6 MPH (5 knots; 2.6 m/s)
Visibility: 6 or more miles (10+ km)
Ceiling: 3300 feet AGL
Clouds: overcast cloud deck at 3300 feet AGL
Weather: no significant weather observed at this time

METAR text: SCDA 151100Z 21003KT 9999 FEW020 OVC033 16/11 Q1019
Conditions at: SCDA (IQUIQUE/DIEGO AR, CL) observed 1100 UTC 15 June 2019
Temperature: 16.0°C (61°F)
Dewpoint: 11.0°C (52°F) [RH = 72%]
Pressure (altimeter): 30.09 inches Hg (1019.0 mb)
Winds: from the SSW (210 degrees) at 3 MPH (3 knots; 1.5 m/s)
Visibility: 6 or more miles (10+ km)
Ceiling: 3300 feet AGL
Clouds: few clouds at 2000 feet AGL
overcast cloud deck at 3300 feet AGL
Weather: no significant weather observed at this time

METAR text: SCDA 151000Z 24004KT 9999 OVC033 16/11 Q1018
Conditions at: SCDA (IQUIQUE/DIEGO AR, CL) observed 1000 UTC 15 June 2019
Temperature: 16.0°C (61°F)
Dewpoint: 11.0°C (52°F) [RH = 72%]
Pressure (altimeter): 30.06 inches Hg (1018.0 mb)
Winds: from the WSW (240 degrees) at 5 MPH (4 knots; 2.1 m/s)
Visibility: 6 or more miles (10+ km)
Ceiling: 3300 feet AGL
Clouds: overcast cloud deck at 3300 feet AGL
Weather: no significant weather observed at this time

METAR text: SCDA 150900Z 22005KT 9999 OVC033 16/11 Q1018
Conditions at: SCDA (IQUIQUE/DIEGO AR, CL) observed 0900 UTC 15 June 2019
Temperature: 16.0°C (61°F)
Dewpoint: 11.0°C (52°F) [RH = 72%]
Pressure (altimeter): 30.06 inches Hg (1018.0 mb)
Winds: from the SW (220 degrees) at 6 MPH (5 knots; 2.6 m/s)
Visibility: 6 or more miles (10+ km)
Ceiling: 3300 feet AGL
Clouds: overcast cloud deck at 3300 feet AGL
Weather: no significant weather observed at this time

METAR text: SCDA 150800Z 00000KT 9999 OVC030 16/11 Q1019
Conditions at: SCDA (IQUIQUE/DIEGO AR, CL) observed 0800 UTC 15 June 2019
Temperature: 16.0°C (61°F)
Dewpoint: 11.0°C (52°F) [RH = 72%]
Pressure (altimeter): 30.09 inches Hg (1019.0 mb)
Winds: calm
Visibility: 6 or more miles (10+ km)
Ceiling: 3000 feet AGL
Clouds: overcast cloud deck at 3000 feet AGL
Weather: no significant weather observed at this time

METAR text: SCDA 150700Z VRB03KT 9999 OVC030 16/11 Q1019
Conditions at: SCDA (IQUIQUE/DIEGO AR, CL) observed 0700 UTC 15 June 2019
Temperature: 16.0°C (61°F)
Dewpoint: 11.0°C (52°F) [RH = 72%]
Pressure (altimeter): 30.09 inches Hg (1019.0 mb)
Winds: variable direction winds at 3 MPH (3 knots; 1.5 m/s)
Visibility: 6 or more miles (10+ km)
Ceiling: 3000 feet AGL
Clouds: overcast cloud deck at 3000 feet AGL
Weather: no significant weather observed at this time

METAR text: SCDA 150600Z 08003KT 9999 OVC030 16/11 Q1019
Conditions at: SCDA (IQUIQUE/DIEGO AR, CL) observed 0600 UTC 15 June 2019
Temperature: 16.0°C (61°F)
Dewpoint: 11.0°C (52°F) [RH = 72%]
Pressure (altimeter): 30.09 inches Hg (1019.0 mb)
Winds: from the E (80 degrees) at 3 MPH (3 knots; 1.5 m/s)
Visibility: 6 or more miles (10+ km)
Ceiling: 3000 feet AGL
Clouds: overcast cloud deck at 3000 feet AGL
Weather: no significant weather observed at this time

METAR text: SCDA 150500Z VRB02KT 9999 OVC030 16/11 Q1019
Conditions at: SCDA (IQUIQUE/DIEGO AR, CL) observed 0500 UTC 15 June 2019
Temperature: 16.0°C (61°F)
Dewpoint: 11.0°C (52°F) [RH = 72%]
Pressure (altimeter): 30.09 inches Hg (1019.0 mb)
Winds: variable direction winds at 2 MPH (2 knots; 1.0 m/s)
Visibility: 6 or more miles (10+ km)
Ceiling: 3000 feet AGL
Clouds: overcast cloud deck at 3000 feet AGL
Weather: no significant weather observed at this time

Forecast for: SCDA (IQUIQUE/DIEGO AR, CL)
Text: TAF SCDA 161007Z 1612/1712 22010KT 9999 OVC030 TX18/1619Z TN15/1709Z
Forecast period: 1200 to 1400 UTC 16 June 2019
Forecast type: FROM: standard forecast or significant change
Winds: from the SW (220 degrees) at 12 MPH (10 knots; 5.1 m/s)
Visibility: 6 or more miles 10+ km)
Ceiling: 3000 feet AGL
Clouds: overcast cloud deck at 3000 feet AGL
Weather: no significant weather forecast for this period
Text: BECMG 1614/1616 23015KT BKN030
Forecast period: 1400 to 1800 UTC 16 June 2019
Forecast type: BECOMING: Conditions expected to become as follows by 1600 UTC 16 June 2019
Winds: from the SW (230 degrees) at 17 MPH (15 knots; 7.7 m/s)
Visibility: 6 or more miles 10+ km)
Ceiling: 3000 feet AGL
Clouds: broken clouds at 3000 feet AGL
Weather: no significant weather forecast for this period
Text: BECMG 1618/1620 SCT030
Forecast period: 1800 UTC 16 June 2019 to 0000 UTC 17 June 2019
Forecast type: BECOMING: Conditions expected to become as follows by 2000 UTC 16 June 2019
Winds: from the SW (230 degrees) at 17 MPH (15 knots; 7.7 m/s)
Visibility: 6 or more miles 10+ km)
Ceiling: at least 12,000 feet AGL
Clouds: scattered clouds at 3000 feet AGL
Weather: no significant weather forecast for this period
Text: BECMG 1700/1702 20010KT BKN025
Forecast period: 0000 to 0400 UTC 17 June 2019
Forecast type: BECOMING: Conditions expected to become as follows by 0200 UTC 17 June 2019
Winds: from the SSW (200 degrees) at 12 MPH (10 knots; 5.1 m/s)
Visibility: 6 or more miles 10+ km)
Ceiling: 2500 feet AGL
Clouds: broken clouds at 2500 feet AGL
Weather: no significant weather forecast for this period
Text: BECMG 1704/1706 17004KT OVC025
Forecast period: 0400 to 1200 UTC 17 June 2019
Forecast type: BECOMING: Conditions expected to become as follows by 0600 UTC 17 June 2019
Winds: from the S (170 degrees) at 5 MPH (4 knots; 2.1 m/s)
Visibility: 6 or more miles 10+ km)
Ceiling: 2500 feet AGL
Clouds: overcast cloud deck at 2500 feet AGL
Weather: no significant weather forecast for this period